sensor_id;sensor_type;location;lat;lon;timestamp;pressure;altitude;pressure_sealevel;temperature;humidity
14089;BME280;7120;52.890;6.040;2023-02-15T00:01:44;102915.22;;;1.00;90.15
14089;BME280;7120;52.890;6.040;2023-02-15T00:04:13;102910.47;;;1.02;90.03
14089;BME280;7120;52.890;6.040;2023-02-15T00:06:39;102911.94;;;1.05;89.80
14089;BME280;7120;52.890;6.040;2023-02-15T00:09:04;102908.63;;;1.03;89.27
14089;BME280;7120;52.890;6.040;2023-02-15T00:11:30;102882.72;;;0.87;89.14
14089;BME280;7120;52.890;6.040;2023-02-15T00:14:21;102900.19;;;1.06;88.81
14089;BME280;7120;52.890;6.040;2023-02-15T00:16:48;102901.56;;;1.02;88.50
14089;BME280;7120;52.890;6.040;2023-02-15T00:19:16;102894.03;;;0.97;88.82
14089;BME280;7120;52.890;6.040;2023-02-15T00:21:42;102894.13;;;1.04;88.78
14089;BME280;7120;52.890;6.040;2023-02-15T00:24:11;102885.00;;;1.05;88.73
14089;BME280;7120;52.890;6.040;2023-02-15T00:26:38;102893.09;;;1.05;88.98
14089;BME280;7120;52.890;6.040;2023-02-15T00:29:05;102891.72;;;1.09;89.16
14089;BME280;7120;52.890;6.040;2023-02-15T00:31:31;102887.16;;;1.09;88.33
14089;BME280;7120;52.890;6.040;2023-02-15T00:34:06;102888.38;;;1.07;88.20
14089;BME280;7120;52.890;6.040;2023-02-15T00:36:32;102895.59;;;1.21;88.59
14089;BME280;7120;52.890;6.040;2023-02-15T00:38:57;102897.25;;;1.22;88.92
14089;BME280;7120;52.890;6.040;2023-02-15T00:41:23;102898.94;;;1.23;88.58
14089;BME280;7120;52.890;6.040;2023-02-15T00:43:48;102897.63;;;1.19;88.17
14089;BME280;7120;52.890;6.040;2023-02-15T00:46:14;102893.00;;;1.13;87.89
14089;BME280;7120;52.890;6.040;2023-02-15T00:48:39;102892.91;;;1.21;88.63
14089;BME280;7120;52.890;6.040;2023-02-15T00:51:05;102901.38;;;1.40;88.92
14089;BME280;7120;52.890;6.040;2023-02-15T00:53:30;102884.19;;;1.41;88.29
14089;BME280;7120;52.890;6.040;2023-02-15T00:55:56;102887.47;;;1.36;88.40
14089;BME280;7120;52.890;6.040;2023-02-15T00:58:22;102886.69;;;1.21;88.38
14089;BME280;7120;52.890;6.040;2023-02-15T01:00:48;102874.72;;;1.08;88.28
14089;BME280;7120;52.890;6.040;2023-02-15T01:03:16;102881.50;;;1.04;88.20
14089;BME280;7120;52.890;6.040;2023-02-15T01:05:42;102865.91;;;1.00;87.89
14089;BME280;7120;52.890;6.040;2023-02-15T01:08:07;102854.47;;;0.98;87.91
14089;BME280;7120;52.890;6.040;2023-02-15T01:10:34;102857.94;;;0.92;87.96
14089;BME280;7120;52.890;6.040;2023-02-15T01:13:00;102862.75;;;0.81;89.88
14089;BME280;7120;52.890;6.040;2023-02-15T01:15:25;102856.34;;;0.82;89.56
14089;BME280;7120;52.890;6.040;2023-02-15T01:17:51;102849.56;;;0.87;88.75
14089;BME280;7120;52.890;6.040;2023-02-15T01:20:19;102850.34;;;0.66;89.39
14089;BME280;7120;52.890;6.040;2023-02-15T01:22:44;102850.88;;;0.76;89.67
14089;BME280;7120;52.890;6.040;2023-02-15T01:25:09;102861.66;;;0.76;89.14
14089;BME280;7120;52.890;6.040;2023-02-15T01:27:35;102853.13;;;0.58;89.77
14089;BME280;7120;52.890;6.040;2023-02-15T01:30:00;102851.53;;;0.63;90.19
14089;BME280;7120;52.890;6.040;2023-02-15T01:32:26;102846.16;;;0.78;89.64
14089;BME280;7120;52.890;6.040;2023-02-15T01:34:52;102839.19;;;0.69;89.42
14089;BME280;7120;52.890;6.040;2023-02-15T01:37:18;102849.28;;;0.81;88.60
14089;BME280;7120;52.890;6.040;2023-02-15T01:39:43;102847.44;;;0.82;88.13
14089;BME280;7120;52.890;6.040;2023-02-15T01:42:11;102846.59;;;0.81;88.21
14089;BME280;7120;52.890;6.040;2023-02-15T01:44:53;102823.75;;;0.77;88.53
14089;BME280;7120;52.890;6.040;2023-02-15T01:47:39;102839.00;;;0.85;88.09
14089;BME280;7120;52.890;6.040;2023-02-15T01:50:16;102842.59;;;0.92;87.91
14089;BME280;7120;52.890;6.040;2023-02-15T01:52:53;102817.81;;;0.82;87.82
14089;BME280;7120;52.890;6.040;2023-02-15T01:55:22;102818.38;;;0.77;87.62
14089;BME280;7120;52.890;6.040;2023-02-15T01:57:49;102828.13;;;0.78;88.00
14089;BME280;7120;52.890;6.040;2023-02-15T02:00:15;102835.53;;;0.76;87.71
14089;BME280;7120;52.890;6.040;2023-02-15T02:02:43;102813.47;;;0.66;88.13
14089;BME280;7120;52.890;6.040;2023-02-15T02:05:10;102829.69;;;0.88;87.76
14089;BME280;7120;52.890;6.040;2023-02-15T02:07:39;102829.69;;;0.88;87.33
14089;BME280;7120;52.890;6.040;2023-02-15T02:10:07;102811.19;;;0.85;87.46
14089;BME280;7120;52.890;6.040;2023-02-15T02:12:35;102807.31;;;0.87;87.11
14089;BME280;7120;52.890;6.040;2023-02-15T02:15:03;102808.69;;;0.83;86.86
14089;BME280;7120;52.890;6.040;2023-02-15T02:20:52;102794.31;;;0.76;86.92
14089;BME280;7120;52.890;6.040;2023-02-15T02:23:39;102789.25;;;0.66;86.98
14089;BME280;7120;52.890;6.040;2023-02-15T02:37:02;102776.91;;;0.57;87.14
14089;BME280;7120;52.890;6.040;2023-02-15T02:39:52;102747.59;;;0.33;86.98
14089;BME280;7120;52.890;6.040;2023-02-15T02:45:09;102774.50;;;0.47;86.98
14089;BME280;7120;52.890;6.040;2023-02-15T02:47:43;102774.78;;;0.38;87.34
14089;BME280;7120;52.890;6.040;2023-02-15T02:50:23;102760.69;;;0.36;87.17
14089;BME280;7120;52.890;6.040;2023-02-15T02:52:51;102763.84;;;0.39;87.71
14089;BME280;7120;52.890;6.040;2023-02-15T02:55:24;102740.38;;;0.33;87.08
14089;BME280;7120;52.890;6.040;2023-02-15T02:58:05;102756.59;;;0.40;86.87
14089;BME280;7120;52.890;6.040;2023-02-15T03:00:37;102743.88;;;0.34;86.83
14089;BME280;7120;52.890;6.040;2023-02-15T03:03:16;102736.94;;;0.24;86.77
14089;BME280;7120;52.890;6.040;2023-02-15T03:05:46;102731.84;;;0.30;87.37
14089;BME280;7120;52.890;6.040;2023-02-15T03:08:14;102737.47;;;0.35;86.75
14089;BME280;7120;52.890;6.040;2023-02-15T03:10:46;102738.97;;;0.37;87.37
14089;BME280;7120;52.890;6.040;2023-02-15T03:13:12;102733.13;;;0.34;87.47
14089;BME280;7120;52.890;6.040;2023-02-15T03:15:39;102739.16;;;0.36;87.29
14089;BME280;7120;52.890;6.040;2023-02-15T03:18:28;102742.03;;;0.34;87.10
14089;BME280;7120;52.890;6.040;2023-02-15T03:20:56;102742.69;;;0.36;87.05
14089;BME280;7120;52.890;6.040;2023-02-15T03:23:24;102734.88;;;0.26;87.21
14089;BME280;7120;52.890;6.040;2023-02-15T03:25:55;102730.19;;;0.29;87.11
14089;BME280;7120;52.890;6.040;2023-02-15T03:28:55;102730.19;;;0.29;87.23
14089;BME280;7120;52.890;6.040;2023-02-15T03:31:23;102722.84;;;0.22;87.35
14089;BME280;7120;52.890;6.040;2023-02-15T03:34:03;102734.25;;;0.24;87.34
14089;BME280;7120;52.890;6.040;2023-02-15T03:36:45;102714.09;;;0.20;87.30
14089;BME280;7120;52.890;6.040;2023-02-15T03:39:18;102727.50;;;0.29;87.35
14089;BME280;7120;52.890;6.040;2023-02-15T03:41:49;102729.41;;;0.20;86.88
14089;BME280;7120;52.890;6.040;2023-02-15T03:44:25;102717.28;;;0.24;87.25
14089;BME280;7120;52.890;6.040;2023-02-15T03:46:58;102725.53;;;0.22;86.95
14089;BME280;7120;52.890;6.040;2023-02-15T03:49:30;102717.28;;;0.09;87.59
14089;BME280;7120;52.890;6.040;2023-02-15T03:52:01;102716.16;;;0.18;87.41
14089;BME280;7120;52.890;6.040;2023-02-15T03:54:30;102723.41;;;0.18;87.77
14089;BME280;7120;52.890;6.040;2023-02-15T03:59:58;102712.09;;;0.22;87.71
14089;BME280;7120;52.890;6.040;2023-02-15T04:05:30;102711.63;;;0.19;87.68
14089;BME280;7120;52.890;6.040;2023-02-15T04:07:56;102713.94;;;0.22;87.57
14089;BME280;7120;52.890;6.040;2023-02-15T04:10:21;102710.03;;;0.24;86.88
14089;BME280;7120;52.890;6.040;2023-02-15T04:13:05;102710.69;;;0.12;87.43
14089;BME280;7120;52.890;6.040;2023-02-15T04:15:30;102718.31;;;0.23;87.36
14089;BME280;7120;52.890;6.040;2023-02-15T04:18:14;102715.34;;;0.18;87.61
14089;BME280;7120;52.890;6.040;2023-02-15T04:20:44;102713.47;;;0.18;87.74
14089;BME280;7120;52.890;6.040;2023-02-15T04:23:29;102705.78;;;0.15;87.77
14089;BME280;7120;52.890;6.040;2023-02-15T04:26:13;102677.50;;;0.05;87.16
14089;BME280;7120;52.890;6.040;2023-02-15T04:28:38;102697.53;;;0.17;87.28
14089;BME280;7120;52.890;6.040;2023-02-15T04:31:03;102701.88;;;0.18;86.65
14089;BME280;7120;52.890;6.040;2023-02-15T04:33:29;102700.03;;;0.18;87.05
14089;BME280;7120;52.890;6.040;2023-02-15T04:35:54;102699.56;;;0.15;87.05
14089;BME280;7120;52.890;6.040;2023-02-15T04:38:19;102696.59;;;0.10;86.56
14089;BME280;7120;52.890;6.040;2023-02-15T04:40:49;102700.22;;;0.17;87.02
14089;BME280;7120;52.890;6.040;2023-02-15T04:43:15;102698.91;;;0.13;86.95
14089;BME280;7120;52.890;6.040;2023-02-15T04:45:41;102679.81;;;0.08;86.57
14089;BME280;7120;52.890;6.040;2023-02-15T04:48:06;102675.81;;;0.04;86.84
14089;BME280;7120;52.890;6.040;2023-02-15T04:50:31;102684.91;;;0.03;86.79
14089;BME280;7120;52.890;6.040;2023-02-15T04:52:57;102680.38;;;0.03;87.11
14089;BME280;7120;52.890;6.040;2023-02-15T04:55:22;102670.25;;;0.05;86.95
14089;BME280;7120;52.890;6.040;2023-02-15T04:57:49;102657.28;;;-0.06;86.84
14089;BME280;7120;52.890;6.040;2023-02-15T05:00:14;102676.75;;;-0.04;87.06
14089;BME280;7120;52.890;6.040;2023-02-15T05:02:40;102664.53;;;-0.07;87.53
14089;BME280;7120;52.890;6.040;2023-02-15T05:05:05;102674.06;;;-0.04;87.62
14089;BME280;7120;52.890;6.040;2023-02-15T05:07:31;102666.44;;;-0.01;87.72
14089;BME280;7120;52.890;6.040;2023-02-15T05:09:56;102662.94;;;-0.01;87.99
14089;BME280;7120;52.890;6.040;2023-02-15T05:12:21;102655.59;;;-0.07;88.26
14089;BME280;7120;52.890;6.040;2023-02-15T05:14:47;102667.31;;;0.00;88.89
14089;BME280;7120;52.890;6.040;2023-02-15T05:17:12;102662.47;;;-0.05;89.35
14089;BME280;7120;52.890;6.040;2023-02-15T05:19:37;102652.44;;;0.04;88.75
14089;BME280;7120;52.890;6.040;2023-02-15T05:22:02;102667.38;;;0.07;88.73
14089;BME280;7120;52.890;6.040;2023-02-15T05:24:28;102662.47;;;0.10;88.37
14089;BME280;7120;52.890;6.040;2023-02-15T05:27:12;102660.69;;;0.17;88.19
14089;BME280;7120;52.890;6.040;2023-02-15T05:29:56;102653.47;;;0.03;88.22
14089;BME280;7120;52.890;6.040;2023-02-15T05:32:22;102659.50;;;0.05;88.42
14089;BME280;7120;52.890;6.040;2023-02-15T05:34:47;102663.50;;;0.09;88.06
14089;BME280;7120;52.890;6.040;2023-02-15T05:37:13;102657.72;;;0.12;87.84
14089;BME280;7120;52.890;6.040;2023-02-15T05:39:38;102660.88;;;0.16;87.71
14089;BME280;7120;52.890;6.040;2023-02-15T05:42:03;102656.06;;;0.11;87.52
14089;BME280;7120;52.890;6.040;2023-02-15T05:44:29;102649.75;;;0.04;88.06
14089;BME280;7120;52.890;6.040;2023-02-15T05:46:54;102633.72;;;-0.04;87.95
14089;BME280;7120;52.890;6.040;2023-02-15T05:49:20;102634.28;;;-0.09;88.30
14089;BME280;7120;52.890;6.040;2023-02-15T05:51:45;102655.06;;;-0.03;88.69
14089;BME280;7120;52.890;6.040;2023-02-15T05:54:10;102658.22;;;0.01;89.01
14089;BME280;7120;52.890;6.040;2023-02-15T05:56:36;102654.78;;;0.07;90.04
14089;BME280;7120;52.890;6.040;2023-02-15T05:59:01;102650.41;;;0.06;91.08
14089;BME280;7120;52.890;6.040;2023-02-15T06:01:27;102644.03;;;0.07;90.79
14089;BME280;7120;52.890;6.040;2023-02-15T06:03:53;102642.41;;;0.13;90.32
14089;BME280;7120;52.890;6.040;2023-02-15T06:06:19;102649.09;;;0.17;90.19
14089;BME280;7120;52.890;6.040;2023-02-15T06:08:44;102642.69;;;0.18;90.61
14089;BME280;7120;52.890;6.040;2023-02-15T06:11:10;102651.16;;;0.15;90.89
14089;BME280;7120;52.890;6.040;2023-02-15T06:13:35;102649.28;;;0.15;90.75
14089;BME280;7120;52.890;6.040;2023-02-15T06:16:01;102648.53;;;0.21;90.21
14089;BME280;7120;52.890;6.040;2023-02-15T06:18:26;102654.28;;;0.18;89.38
14089;BME280;7120;52.890;6.040;2023-02-15T06:20:52;102644.75;;;0.16;88.94
14089;BME280;7120;52.890;6.040;2023-02-15T06:23:17;102650.38;;;0.21;88.96
14089;BME280;7120;52.890;6.040;2023-02-15T06:25:45;102650.75;;;0.18;88.42
14089;BME280;7120;52.890;6.040;2023-02-15T06:28:10;102630.19;;;0.10;88.48
14089;BME280;7120;52.890;6.040;2023-02-15T06:30:36;102643.53;;;0.18;87.87
14089;BME280;7120;52.890;6.040;2023-02-15T06:33:01;102633.78;;;0.17;88.78
14089;BME280;7120;52.890;6.040;2023-02-15T06:35:27;102633.16;;;0.15;88.92
14089;BME280;7120;52.890;6.040;2023-02-15T06:37:52;102627.50;;;0.10;89.63
14089;BME280;7120;52.890;6.040;2023-02-15T06:40:17;102634.53;;;0.11;89.22
14089;BME280;7120;52.890;6.040;2023-02-15T06:42:43;102639.81;;;0.19;90.37
14089;BME280;7120;52.890;6.040;2023-02-15T06:45:09;102644.44;;;0.25;90.11
14089;BME280;7120;52.890;6.040;2023-02-15T06:47:35;102647.28;;;0.39;90.85
14089;BME280;7120;52.890;6.040;2023-02-15T06:50:00;102640.13;;;0.46;90.99
14089;BME280;7120;52.890;6.040;2023-02-15T06:52:26;102640.59;;;0.35;90.87
14089;BME280;7120;52.890;6.040;2023-02-15T06:54:51;102644.06;;;0.29;90.81
14089;BME280;7120;52.890;6.040;2023-02-15T06:57:17;102644.88;;;0.44;90.66
14089;BME280;7120;52.890;6.040;2023-02-15T06:59:42;102636.97;;;0.42;90.42
14089;BME280;7120;52.890;6.040;2023-02-15T07:02:09;102638.78;;;0.57;89.80
14089;BME280;7120;52.890;6.040;2023-02-15T07:04:36;102631.47;;;0.50;89.65
14089;BME280;7120;52.890;6.040;2023-02-15T07:07:01;102638.66;;;0.65;89.27
14089;BME280;7120;52.890;6.040;2023-02-15T07:09:27;102642.47;;;0.55;90.02
14089;BME280;7120;52.890;6.040;2023-02-15T07:11:52;102633.66;;;0.62;90.11
14089;BME280;7120;52.890;6.040;2023-02-15T07:14:36;102639.31;;;0.67;89.86
14089;BME280;7120;52.890;6.040;2023-02-15T07:17:01;102630.97;;;0.62;89.59
14089;BME280;7120;52.890;6.040;2023-02-15T07:19:27;102645.19;;;0.77;89.17
14089;BME280;7120;52.890;6.040;2023-02-15T07:21:52;102630.72;;;0.78;89.75
14089;BME280;7120;52.890;6.040;2023-02-15T07:24:17;102628.78;;;0.93;90.21
14089;BME280;7120;52.890;6.040;2023-02-15T07:26:43;102629.22;;;0.97;89.69
14089;BME280;7120;52.890;6.040;2023-02-15T07:29:08;102623.06;;;1.03;89.51
14089;BME280;7120;52.890;6.040;2023-02-15T07:31:34;102622.53;;;1.14;88.94
14089;BME280;7120;52.890;6.040;2023-02-15T07:34:00;102634.19;;;1.21;89.37
14089;BME280;7120;52.890;6.040;2023-02-15T07:36:25;102608.91;;;1.22;88.85
14089;BME280;7120;52.890;6.040;2023-02-15T07:38:51;102618.50;;;1.31;89.21
14089;BME280;7120;52.890;6.040;2023-02-15T07:41:16;102595.44;;;1.22;88.96
14089;BME280;7120;52.890;6.040;2023-02-15T07:43:43;102612.09;;;1.32;89.63
14089;BME280;7120;52.890;6.040;2023-02-15T07:46:12;102608.22;;;1.42;89.80
14089;BME280;7120;52.890;6.040;2023-02-15T07:48:39;102615.53;;;1.54;90.00
14089;BME280;7120;52.890;6.040;2023-02-15T07:51:06;102617.91;;;1.64;89.97
14089;BME280;7120;52.890;6.040;2023-02-15T07:53:32;102608.41;;;1.75;90.31
14089;BME280;7120;52.890;6.040;2023-02-15T07:55:59;102603.88;;;1.82;89.92
14089;BME280;7120;52.890;6.040;2023-02-15T07:58:25;102609.13;;;1.97;89.92
14089;BME280;7120;52.890;6.040;2023-02-15T08:01:10;102619.94;;;2.03;90.07
14089;BME280;7120;52.890;6.040;2023-02-15T08:03:36;102600.03;;;2.11;90.49
14089;BME280;7120;52.890;6.040;2023-02-15T08:06:01;102589.47;;;2.16;89.71
14089;BME280;7120;52.890;6.040;2023-02-15T08:08:26;102606.13;;;2.26;89.66
14089;BME280;7120;52.890;6.040;2023-02-15T08:16:38;102606.00;;;2.54;90.75
14089;BME280;7120;52.890;6.040;2023-02-15T08:19:07;102604.16;;;2.68;90.29
14089;BME280;7120;52.890;6.040;2023-02-15T08:21:34;102593.13;;;2.76;90.36
14089;BME280;7120;52.890;6.040;2023-02-15T08:24:00;102574.03;;;2.78;89.01
14089;BME280;7120;52.890;6.040;2023-02-15T08:26:27;102585.44;;;2.93;89.20
14089;BME280;7120;52.890;6.040;2023-02-15T08:28:53;102578.78;;;3.02;89.93
14089;BME280;7120;52.890;6.040;2023-02-15T08:31:19;102587.72;;;3.16;90.98
14089;BME280;7120;52.890;6.040;2023-02-15T08:33:46;102582.91;;;3.31;91.09
14089;BME280;7120;52.890;6.040;2023-02-15T08:36:15;102568.13;;;3.47;90.51
14089;BME280;7120;52.890;6.040;2023-02-15T08:38:41;102573.72;;;3.52;90.22
14089;BME280;7120;52.890;6.040;2023-02-15T08:43:35;102570.09;;;3.78;90.34
14089;BME280;7120;52.890;6.040;2023-02-15T08:46:00;102570.88;;;3.92;89.78
14089;BME280;7120;52.890;6.040;2023-02-15T08:48:25;102563.78;;;3.97;89.62
14089;BME280;7120;52.890;6.040;2023-02-15T08:50:51;102569.88;;;4.24;89.96
14089;BME280;7120;52.890;6.040;2023-02-15T08:53:16;102556.47;;;4.36;89.23
14089;BME280;7120;52.890;6.040;2023-02-15T08:55:45;102555.91;;;4.59;89.13
14089;BME280;7120;52.890;6.040;2023-02-15T08:58:10;102554.56;;;4.93;88.10
14089;BME280;7120;52.890;6.040;2023-02-15T09:00:36;102558.69;;;5.02;87.75
14089;BME280;7120;52.890;6.040;2023-02-15T09:03:01;102552.34;;;5.51;87.98
14089;BME280;7120;52.890;6.040;2023-02-15T09:05:26;102560.16;;;5.78;85.94
14089;BME280;7120;52.890;6.040;2023-02-15T09:07:52;102546.22;;;5.93;85.05
14089;BME280;7120;52.890;6.040;2023-02-15T09:10:17;102556.16;;;5.99;84.31
14089;BME280;7120;52.890;6.040;2023-02-15T09:12:42;102552.34;;;6.18;84.72
14089;BME280;7120;52.890;6.040;2023-02-15T09:15:08;102551.50;;;6.48;83.99
14089;BME280;7120;52.890;6.040;2023-02-15T09:17:33;102537.94;;;6.59;83.49
14089;BME280;7120;52.890;6.040;2023-02-15T09:19:58;102539.75;;;6.77;83.06
14089;BME280;7120;52.890;6.040;2023-02-15T09:22:24;102537.28;;;6.99;82.84
14089;BME280;7120;52.890;6.040;2023-02-15T09:24:49;102527.09;;;7.30;82.82
14089;BME280;7120;52.890;6.040;2023-02-15T09:27:14;102532.72;;;7.52;81.79
14089;BME280;7120;52.890;6.040;2023-02-15T09:29:40;102548.16;;;7.75;81.35
14089;BME280;7120;52.890;6.040;2023-02-15T09:32:05;102533.03;;;7.67;81.33
14089;BME280;7120;52.890;6.040;2023-02-15T09:34:30;102538.44;;;7.90;80.60
14089;BME280;7120;52.890;6.040;2023-02-15T09:36:56;102537.75;;;8.12;80.47
14089;BME280;7120;52.890;6.040;2023-02-15T09:39:25;102528.41;;;8.36;79.43
14089;BME280;7120;52.890;6.040;2023-02-15T09:42:11;102540.34;;;8.18;77.94
14089;BME280;7120;52.890;6.040;2023-02-15T09:55:20;102538.41;;;9.53;75.53
14089;BME280;7120;52.890;6.040;2023-02-15T10:00:46;102540.44;;;9.63;75.48
14089;BME280;7120;52.890;6.040;2023-02-15T10:11:40;102547.75;;;10.01;74.92
14089;BME280;7120;52.890;6.040;2023-02-15T10:14:19;102542.91;;;9.86;72.22
14089;BME280;7120;52.890;6.040;2023-02-15T10:16:57;102545.41;;;10.37;72.48
14089;BME280;7120;52.890;6.040;2023-02-15T10:22:39;102543.81;;;10.19;72.02
14089;BME280;7120;52.890;6.040;2023-02-15T10:25:25;102543.78;;;9.92;72.53
14089;BME280;7120;52.890;6.040;2023-02-15T10:27:54;102548.16;;;9.93;73.52
14089;BME280;7120;52.890;6.040;2023-02-15T10:30:28;102528.03;;;9.77;71.87
14089;BME280;7120;52.890;6.040;2023-02-15T10:33:00;102524.75;;;9.31;72.13
14089;BME280;7120;52.890;6.040;2023-02-15T10:50:59;102532.91;;;11.20;71.55
14089;BME280;7120;52.890;6.040;2023-02-15T10:53:35;102531.91;;;11.89;69.71
14089;BME280;7120;52.890;6.040;2023-02-15T10:56:23;102535.50;;;12.05;66.35
14089;BME280;7120;52.890;6.040;2023-02-15T11:01:48;102515.84;;;12.44;64.47
14089;BME280;7120;52.890;6.040;2023-02-15T11:06:46;102508.69;;;12.37;66.35
14089;BME280;7120;52.890;6.040;2023-02-15T11:09:17;102485.91;;;12.32;64.21
14089;BME280;7120;52.890;6.040;2023-02-15T11:11:48;102501.56;;;12.31;64.27
14089;BME280;7120;52.890;6.040;2023-02-15T11:16:47;102498.47;;;11.97;64.88
14089;BME280;7120;52.890;6.040;2023-02-15T11:19:21;102501.81;;;12.25;64.32
14089;BME280;7120;52.890;6.040;2023-02-15T11:21:52;102493.03;;;12.23;64.37
14089;BME280;7120;52.890;6.040;2023-02-15T11:24:19;102503.75;;;12.70;63.60
14089;BME280;7120;52.890;6.040;2023-02-15T11:32:37;102504.06;;;12.48;63.15
14089;BME280;7120;52.890;6.040;2023-02-15T11:40:17;102483.06;;;13.34;60.70
14089;BME280;7120;52.890;6.040;2023-02-15T11:42:45;102468.94;;;13.61;61.56
14089;BME280;7120;52.890;6.040;2023-02-15T11:45:29;102471.44;;;13.52;60.98
14089;BME280;7120;52.890;6.040;2023-02-15T11:47:56;102452.00;;;14.27;59.33
14089;BME280;7120;52.890;6.040;2023-02-15T11:50:24;102468.06;;;13.70;57.46
14089;BME280;7120;52.890;6.040;2023-02-15T11:52:58;102449.06;;;12.99;59.87
14089;BME280;7120;52.890;6.040;2023-02-15T11:55:24;102448.28;;;12.83;59.96
14089;BME280;7120;52.890;6.040;2023-02-15T12:00:45;102446.41;;;14.03;58.52
14089;BME280;7120;52.890;6.040;2023-02-15T12:03:28;102431.88;;;13.53;59.06
14089;BME280;7120;52.890;6.040;2023-02-15T12:06:01;102428.53;;;14.00;58.02
14089;BME280;7120;52.890;6.040;2023-02-15T12:08:37;102428.31;;;14.31;60.97
14089;BME280;7120;52.890;6.040;2023-02-15T12:11:09;102429.22;;;14.16;56.78
14089;BME280;7120;52.890;6.040;2023-02-15T12:14:07;102427.91;;;14.48;56.55
14089;BME280;7120;52.890;6.040;2023-02-15T12:16:48;102419.75;;;14.91;58.72
14089;BME280;7120;52.890;6.040;2023-02-15T12:19:37;102410.88;;;14.94;55.98
14089;BME280;7120;52.890;6.040;2023-02-15T12:22:20;102410.66;;;14.66;55.60
14089;BME280;7120;52.890;6.040;2023-02-15T12:24:48;102416.41;;;14.36;57.87
14089;BME280;7120;52.890;6.040;2023-02-15T12:29:48;102411.72;;;13.63;59.71
14089;BME280;7120;52.890;6.040;2023-02-15T12:32:21;102411.22;;;13.61;61.39
14089;BME280;7120;52.890;6.040;2023-02-15T12:34:48;102408.56;;;13.40;59.77
14089;BME280;7120;52.890;6.040;2023-02-15T12:37:23;102398.13;;;13.37;60.97
14089;BME280;7120;52.890;6.040;2023-02-15T12:42:17;102381.25;;;12.95;62.78
14089;BME280;7120;52.890;6.040;2023-02-15T12:45:00;102386.44;;;13.06;61.46
14089;BME280;7120;52.890;6.040;2023-02-15T12:47:27;102385.84;;;13.14;60.69
14089;BME280;7120;52.890;6.040;2023-02-15T12:52:31;102371.06;;;13.05;60.50
14089;BME280;7120;52.890;6.040;2023-02-15T12:55:10;102374.00;;;13.24;62.32
14089;BME280;7120;52.890;6.040;2023-02-15T12:57:36;102374.81;;;13.25;62.21
14089;BME280;7120;52.890;6.040;2023-02-15T13:02:49;102364.13;;;13.18;62.36
14089;BME280;7120;52.890;6.040;2023-02-15T13:07:50;102369.72;;;12.92;61.14
14089;BME280;7120;52.890;6.040;2023-02-15T13:10:23;102366.22;;;12.72;61.55
14089;BME280;7120;52.890;6.040;2023-02-15T13:12:50;102364.34;;;12.62;63.67
14089;BME280;7120;52.890;6.040;2023-02-15T13:15:25;102358.56;;;12.58;62.48
14089;BME280;7120;52.890;6.040;2023-02-15T13:17:51;102353.13;;;12.48;63.14
14089;BME280;7120;52.890;6.040;2023-02-15T13:20:21;102345.44;;;12.45;65.27
14089;BME280;7120;52.890;6.040;2023-02-15T13:22:51;102351.16;;;12.64;63.87
14089;BME280;7120;52.890;6.040;2023-02-15T13:25:20;102343.22;;;12.62;63.03
14089;BME280;7120;52.890;6.040;2023-02-15T13:27:51;102351.84;;;13.00;64.07
14089;BME280;7120;52.890;6.040;2023-02-15T13:30:25;102351.03;;;12.95;62.59
14089;BME280;7120;52.890;6.040;2023-02-15T13:33:06;102349.63;;;13.07;61.08
14089;BME280;7120;52.890;6.040;2023-02-15T13:35:42;102342.09;;;13.33;61.43
14089;BME280;7120;52.890;6.040;2023-02-15T13:41:11;102346.66;;;12.88;60.54
14089;BME280;7120;52.890;6.040;2023-02-15T13:47:04;102347.06;;;12.51;62.26
14089;BME280;7120;52.890;6.040;2023-02-15T13:49:39;102339.94;;;12.55;62.31
14089;BME280;7120;52.890;6.040;2023-02-15T13:52:22;102331.13;;;12.53;62.73
14089;BME280;7120;52.890;6.040;2023-02-15T13:57:40;102341.22;;;12.78;63.26
14089;BME280;7120;52.890;6.040;2023-02-15T14:00:29;102327.84;;;12.56;62.15
14089;BME280;7120;52.890;6.040;2023-02-15T14:03:21;102328.38;;;12.58;64.05
14089;BME280;7120;52.890;6.040;2023-02-15T14:06:17;102317.44;;;12.43;62.73
14089;BME280;7120;52.890;6.040;2023-02-15T14:09:20;102315.28;;;12.30;63.42
14089;BME280;7120;52.890;6.040;2023-02-15T14:20:37;102336.16;;;12.10;65.69
14089;BME280;7120;52.890;6.040;2023-02-15T14:25:53;102319.97;;;12.19;65.23
14089;BME280;7120;52.890;6.040;2023-02-15T14:31:07;102317.94;;;12.60;64.89
14089;BME280;7120;52.890;6.040;2023-02-15T14:33:38;102314.06;;;12.72;64.15
14089;BME280;7120;52.890;6.040;2023-02-15T14:36:06;102322.38;;;12.46;66.40
14089;BME280;7120;52.890;6.040;2023-02-15T14:38:56;102312.94;;;12.78;66.11
14089;BME280;7120;52.890;6.040;2023-02-15T14:41:31;102305.75;;;12.92;64.68
14089;BME280;7120;52.890;6.040;2023-02-15T14:44:13;102303.34;;;12.75;64.83
14089;BME280;7120;52.890;6.040;2023-02-15T14:46:55;102309.41;;;12.67;65.08
14089;BME280;7120;52.890;6.040;2023-02-15T14:49:25;102303.97;;;12.57;65.78
14089;BME280;7120;52.890;6.040;2023-02-15T14:52:11;102298.25;;;12.48;64.86
14089;BME280;7120;52.890;6.040;2023-02-15T15:02:18;102301.34;;;11.86;65.85
14089;BME280;7120;52.890;6.040;2023-02-15T15:04:57;102302.97;;;12.07;66.67
14089;BME280;7120;52.890;6.040;2023-02-15T15:07:26;102296.38;;;11.98;67.39
14089;BME280;7120;52.890;6.040;2023-02-15T15:14:54;102301.06;;;11.97;68.03
14089;BME280;7120;52.890;6.040;2023-02-15T15:19:59;102310.41;;;11.86;66.82
14089;BME280;7120;52.890;6.040;2023-02-15T15:22:29;102310.66;;;12.05;66.98
14089;BME280;7120;52.890;6.040;2023-02-15T15:25:00;102306.56;;;11.82;68.00
14089;BME280;7120;52.890;6.040;2023-02-15T15:27:39;102299.97;;;11.78;67.53
14089;BME280;7120;52.890;6.040;2023-02-15T15:32:42;102276.38;;;11.67;69.92
14089;BME280;7120;52.890;6.040;2023-02-15T15:49:24;102283.09;;;10.88;72.15
14089;BME280;7120;52.890;6.040;2023-02-15T15:51:53;102279.75;;;10.76;73.20
14089;BME280;7120;52.890;6.040;2023-02-15T15:54:21;102270.41;;;10.61;73.31
14089;BME280;7120;52.890;6.040;2023-02-15T15:56:51;102273.03;;;10.41;74.03
14089;BME280;7120;52.890;6.040;2023-02-15T15:59:21;102257.41;;;10.31;74.33
14089;BME280;7120;52.890;6.040;2023-02-15T16:01:49;102273.56;;;10.38;74.43
14089;BME280;7120;52.890;6.040;2023-02-15T16:04:32;102269.94;;;10.27;74.09